createdAt,value
2022-10-23T00:01:18.034Z,99.90
2022-10-23T00:04:19.281Z,99.90
2022-10-23T00:07:12.086Z,99.90
2022-10-23T00:10:04.558Z,99.90
2022-10-23T00:12:57.125Z,99.90
2022-10-23T00:15:49.350Z,99.90
2022-10-23T00:18:41.843Z,99.90
2022-10-23T00:21:34.036Z,99.90
2022-10-23T00:24:26.193Z,99.90
2022-10-23T00:27:18.409Z,99.90
2022-10-23T00:30:11.399Z,99.90
2022-10-23T00:33:03.582Z,99.90
2022-10-23T00:35:55.755Z,99.90
2022-10-23T00:38:48.822Z,99.90
2022-10-23T00:41:40.987Z,99.90
2022-10-23T00:44:33.054Z,99.90
2022-10-23T00:47:25.204Z,99.90
2022-10-23T00:50:18.851Z,99.90
2022-10-23T00:53:13.013Z,99.90
2022-10-23T00:56:06.021Z,99.90
2022-10-23T00:58:58.558Z,99.90
2022-10-23T01:01:50.925Z,99.90
2022-10-23T01:04:43.408Z,99.90
2022-10-23T01:08:01.505Z,99.90
2022-10-23T01:11:08.075Z,99.90
2022-10-23T01:14:06.787Z,99.90
2022-10-23T01:17:12.584Z,99.90
2022-10-23T01:20:25.615Z,99.90
2022-10-23T01:23:42.377Z,99.90
2022-10-23T01:26:55.632Z,99.90
2022-10-23T01:30:08.133Z,99.90
2022-10-23T01:33:03.003Z,99.90
2022-10-23T01:36:07.151Z,99.90
2022-10-23T01:39:06.837Z,99.90
2022-10-23T01:42:11.877Z,99.90
2022-10-23T01:45:09.886Z,99.90
2022-10-23T01:48:03.636Z,99.90
2022-10-23T01:51:03.425Z,99.90
2022-10-23T01:53:59.774Z,99.90
2022-10-23T01:56:53.164Z,99.90
2022-10-23T01:59:51.098Z,99.90
2022-10-23T02:02:45.907Z,99.90
2022-10-23T02:05:39.372Z,99.90
2022-10-23T02:08:31.899Z,99.90
2022-10-23T02:11:24.211Z,99.90
2022-10-23T02:14:30.813Z,99.90
2022-10-23T02:17:45.006Z,99.90
2022-10-23T02:23:56.965Z,99.90
2022-10-23T02:26:55.613Z,99.90
2022-10-23T02:29:53.268Z,99.90
2022-10-23T02:32:50.018Z,99.90
2022-10-23T02:35:42.457Z,99.90
2022-10-23T02:38:42.410Z,99.90
2022-10-23T02:41:57.785Z,99.90
2022-10-23T02:45:03.498Z,99.90
2022-10-23T02:47:59.575Z,99.90
2022-10-23T02:50:51.871Z,99.90
2022-10-23T02:57:08.150Z,99.90
2022-10-23T03:00:16.879Z,99.90
2022-10-23T03:03:17.219Z,99.90
2022-10-23T03:06:09.701Z,99.90
2022-10-23T03:09:08.871Z,99.90
2022-10-23T03:12:00.990Z,99.90
2022-10-23T03:14:53.255Z,99.90
2022-10-23T03:17:45.393Z,99.90
2022-10-23T03:20:37.565Z,99.90
2022-10-23T03:23:29.678Z,99.90
2022-10-23T03:26:21.817Z,99.90
2022-10-23T03:29:13.969Z,99.90
2022-10-23T03:32:06.263Z,99.90
2022-10-23T03:34:58.400Z,99.90
2022-10-23T03:37:50.495Z,99.90
2022-10-23T03:40:43.327Z,99.90
2022-10-23T03:43:35.594Z,99.90
2022-10-23T03:46:27.739Z,99.90
2022-10-23T03:49:19.908Z,99.90
2022-10-23T03:52:12.116Z,99.90
2022-10-23T03:55:05.295Z,99.90
2022-10-23T03:57:57.465Z,99.90
2022-10-23T04:00:49.615Z,99.90
2022-10-23T04:03:41.833Z,99.90
2022-10-23T04:06:34.095Z,99.90
2022-10-23T04:09:26.366Z,99.90
2022-10-23T04:12:18.481Z,99.90
2022-10-23T04:15:10.819Z,99.90
2022-10-23T04:18:03.039Z,99.90
2022-10-23T04:20:55.182Z,99.90
2022-10-23T04:23:47.321Z,99.90
2022-10-23T04:26:39.478Z,99.90
2022-10-23T04:29:32.542Z,99.90
2022-10-23T04:32:24.734Z,99.90
2022-10-23T04:35:16.993Z,99.90
2022-10-23T04:38:09.118Z,99.90
2022-10-23T04:41:01.308Z,99.90
2022-10-23T04:43:53.437Z,99.90
2022-10-23T04:46:45.647Z,99.90
2022-10-23T04:49:37.773Z,99.90
2022-10-23T04:52:29.902Z,99.90
2022-10-23T04:55:22.437Z,99.90
2022-10-23T04:58:14.533Z,99.90
2022-10-23T05:01:07.417Z,99.90
2022-10-23T05:03:59.649Z,99.90
2022-10-23T05:06:51.884Z,99.90
2022-10-23T05:09:44.100Z,99.90
2022-10-23T05:12:36.252Z,99.90
2022-10-23T05:15:28.410Z,99.90
2022-10-23T05:18:23.265Z,99.90
2022-10-23T05:21:22.159Z,99.90
2022-10-23T05:24:14.276Z,99.90
2022-10-23T05:27:06.399Z,99.90
2022-10-23T05:29:58.724Z,99.90
2022-10-23T05:32:50.914Z,99.90
2022-10-23T05:35:45.387Z,99.90
2022-10-23T05:38:37.577Z,99.90
2022-10-23T05:41:29.683Z,99.90
2022-10-23T05:44:21.834Z,99.90
2022-10-23T05:47:13.926Z,99.90
2022-10-23T05:50:06.395Z,99.90
2022-10-23T05:52:58.514Z,99.90
2022-10-23T05:55:50.611Z,99.90
2022-10-23T05:58:42.995Z,99.90
2022-10-23T06:01:35.228Z,99.90
2022-10-23T06:04:27.456Z,99.90
2022-10-23T06:07:25.467Z,99.90
2022-10-23T06:10:17.751Z,99.90
2022-10-23T06:13:10.186Z,99.90
2022-10-23T06:16:10.475Z,99.90
2022-10-23T06:19:02.600Z,99.90
2022-10-23T06:21:54.719Z,99.90
2022-10-23T06:24:46.818Z,99.90
2022-10-23T06:27:38.967Z,99.90
2022-10-23T06:30:31.202Z,99.90
2022-10-23T06:33:23.442Z,99.90
2022-10-23T06:36:15.650Z,99.90
2022-10-23T06:39:08.479Z,99.00
2022-10-23T06:42:00.656Z,98.40
2022-10-23T06:44:52.803Z,97.20
2022-10-23T06:47:45.329Z,97.20
2022-10-23T06:50:38.788Z,95.00
2022-10-23T06:53:30.923Z,93.70
2022-10-23T06:56:25.253Z,91.00
2022-10-23T06:59:17.493Z,92.80
2022-10-23T07:02:10.357Z,92.60
2022-10-23T07:05:02.543Z,92.20
2022-10-23T07:07:54.655Z,92.60
2022-10-23T07:10:48.068Z,93.40
2022-10-23T07:13:41.093Z,94.10
2022-10-23T07:16:33.343Z,94.50
2022-10-23T07:19:25.574Z,94.60
2022-10-23T07:22:17.856Z,95.20
2022-10-23T07:25:10.137Z,95.70
2022-10-23T07:28:03.389Z,96.20
2022-10-23T07:30:59.616Z,97.10
2022-10-23T07:33:52.157Z,97.70
2022-10-23T07:36:44.288Z,99.90
2022-10-23T07:39:36.707Z,99.90
2022-10-23T07:42:28.855Z,99.90
2022-10-23T07:45:21.013Z,99.90
2022-10-23T07:48:13.289Z,99.90
2022-10-23T07:51:10.621Z,99.90
2022-10-23T07:54:02.821Z,99.90
2022-10-23T07:56:54.977Z,99.90
2022-10-23T07:59:47.086Z,99.90
2022-10-23T08:02:39.305Z,99.90
2022-10-23T08:05:31.405Z,99.90
2022-10-23T08:08:24.817Z,99.90
2022-10-23T08:11:24.774Z,99.90
2022-10-23T08:14:16.954Z,99.90
2022-10-23T08:17:09.962Z,99.90
2022-10-23T08:20:02.406Z,99.90
2022-10-23T08:22:55.574Z,99.90
2022-10-23T08:25:47.787Z,99.90
2022-10-23T08:28:40.034Z,99.90
2022-10-23T08:31:32.270Z,99.90
2022-10-23T08:34:24.720Z,99.90
2022-10-23T08:37:16.838Z,99.90
2022-10-23T08:40:18.190Z,99.90
2022-10-23T08:43:10.277Z,99.90
2022-10-23T08:46:09.370Z,99.90
2022-10-23T08:49:17.758Z,99.90
2022-10-23T08:52:46.796Z,99.90
2022-10-23T08:55:47.098Z,99.90
2022-10-23T08:58:56.924Z,99.90
2022-10-23T09:02:03.965Z,99.90
2022-10-23T09:04:58.267Z,99.90
2022-10-23T09:07:56.326Z,99.90
2022-10-23T09:11:10.553Z,99.90
2022-10-23T09:14:40.227Z,99.90
2022-10-23T09:17:39.160Z,99.90
2022-10-23T09:20:35.866Z,99.90
2022-10-23T09:23:28.129Z,99.90
2022-10-23T09:26:20.303Z,99.90
2022-10-23T09:29:23.533Z,99.90
2022-10-23T09:32:15.701Z,99.90
2022-10-23T09:35:21.009Z,99.90
2022-10-23T09:38:37.106Z,99.90
2022-10-23T09:41:36.830Z,99.90
2022-10-23T09:44:31.315Z,99.90
2022-10-23T09:47:25.791Z,99.90
2022-10-23T09:50:20.671Z,99.90
2022-10-23T09:53:23.628Z,99.90
2022-10-23T09:59:41.934Z,99.90
2022-10-23T10:02:37.136Z,99.90
2022-10-23T10:05:35.006Z,99.90
2022-10-23T10:08:51.960Z,99.90
2022-10-23T10:11:51.720Z,99.90
2022-10-23T10:15:02.762Z,99.90
2022-10-23T10:18:19.407Z,99.90
2022-10-23T10:21:28.882Z,99.90
2022-10-23T10:24:24.533Z,99.90
2022-10-23T10:27:28.696Z,99.90
2022-10-23T10:30:23.134Z,99.90
2022-10-23T10:33:15.224Z,99.90
2022-10-23T10:36:35.359Z,99.90
2022-10-23T10:40:21.460Z,99.90
2022-10-23T10:43:37.501Z,99.90
2022-10-23T10:47:06.861Z,99.90
2022-10-23T10:50:33.511Z,99.90
2022-10-23T10:53:39.230Z,99.90
2022-10-23T10:56:35.107Z,99.90
2022-10-23T10:59:31.131Z,99.90
2022-10-23T11:02:42.637Z,99.90
2022-10-23T11:05:37.300Z,99.90
2022-10-23T11:08:44.560Z,99.90
2022-10-23T11:11:48.963Z,99.90
2022-10-23T11:14:42.763Z,99.90
2022-10-23T11:17:40.588Z,99.90
2022-10-23T11:21:08.543Z,99.90
2022-10-23T11:24:33.599Z,99.90
2022-10-23T11:28:10.178Z,99.90
2022-10-23T11:31:38.444Z,99.90
2022-10-23T11:34:39.436Z,99.90
2022-10-23T11:37:32.209Z,99.90
2022-10-23T11:40:25.570Z,99.90
2022-10-23T11:43:52.067Z,99.90
2022-10-23T11:46:44.329Z,99.90
2022-10-23T11:49:36.548Z,99.90
2022-10-23T11:52:28.702Z,99.90
2022-10-23T11:55:26.651Z,99.90
2022-10-23T11:58:26.241Z,99.90
2022-10-23T12:01:21.203Z,99.90
2022-10-23T12:04:13.318Z,99.90
2022-10-23T12:07:21.021Z,99.90
2022-10-23T12:10:35.081Z,99.90
2022-10-23T12:13:31.894Z,99.90
2022-10-23T12:16:35.523Z,99.90
2022-10-23T12:19:31.071Z,99.90
2022-10-23T12:22:32.040Z,99.90
2022-10-23T12:25:27.037Z,99.90
2022-10-23T12:28:44.795Z,99.90
2022-10-23T12:31:50.189Z,99.90
2022-10-23T12:34:48.330Z,99.90
2022-10-23T12:37:55.959Z,99.90
2022-10-23T12:40:53.463Z,99.90
2022-10-23T12:43:54.025Z,99.90
2022-10-23T12:46:51.956Z,99.90
2022-10-23T12:49:49.957Z,99.90
2022-10-23T12:52:54.599Z,99.90
2022-10-23T12:56:01.386Z,99.90
2022-10-23T12:58:56.802Z,99.90
2022-10-23T13:01:52.631Z,99.90
2022-10-23T13:04:45.134Z,99.90
2022-10-23T13:07:44.923Z,99.90
2022-10-23T13:10:37.470Z,99.90
2022-10-23T13:13:30.037Z,99.90
2022-10-23T13:16:26.069Z,99.90
2022-10-23T13:19:26.152Z,99.90
2022-10-23T13:22:22.300Z,99.90
2022-10-23T13:25:22.390Z,99.90
2022-10-23T13:28:26.179Z,99.90
2022-10-23T13:31:18.234Z,99.90
2022-10-23T13:34:30.088Z,99.90
2022-10-23T13:37:26.124Z,99.90
2022-10-23T13:40:26.278Z,99.90
2022-10-23T13:43:20.318Z,99.90
2022-10-23T13:46:19.400Z,99.90
2022-10-23T13:49:11.592Z,99.90
2022-10-23T13:52:04.200Z,99.90
2022-10-23T13:54:56.580Z,99.90
2022-10-23T13:57:48.771Z,99.90
2022-10-23T14:00:43.294Z,99.90
2022-10-23T14:03:35.526Z,99.90
2022-10-23T14:06:27.672Z,99.90
2022-10-23T14:09:19.836Z,99.90
2022-10-23T14:12:12.451Z,99.90
2022-10-23T14:15:04.773Z,99.90
2022-10-23T14:17:59.467Z,99.90
2022-10-23T14:20:52.944Z,99.90
2022-10-23T14:23:45.207Z,99.90
2022-10-23T14:26:38.078Z,99.90
2022-10-23T14:29:30.463Z,99.90
2022-10-23T14:32:22.723Z,99.90
2022-10-23T14:35:14.887Z,99.90
2022-10-23T14:38:07.050Z,99.90
2022-10-23T14:40:59.257Z,99.90
2022-10-23T14:43:51.932Z,99.90
2022-10-23T14:46:44.099Z,99.90
2022-10-23T14:49:36.229Z,99.90
2022-10-23T14:52:28.509Z,99.90
2022-10-23T14:55:20.686Z,99.90
2022-10-23T14:58:13.080Z,99.90
2022-10-23T15:01:05.499Z,99.90
2022-10-23T15:03:57.747Z,99.90
2022-10-23T15:06:49.917Z,99.90
2022-10-23T15:09:42.039Z,99.90
2022-10-23T15:12:35.504Z,99.90
2022-10-23T15:15:27.602Z,99.90
2022-10-23T15:18:21.554Z,99.90
2022-10-23T15:21:14.706Z,99.90
2022-10-23T15:24:07.072Z,99.90
2022-10-23T15:27:00.251Z,99.90
2022-10-23T15:29:52.737Z,99.90
2022-10-23T15:32:44.992Z,99.90
2022-10-23T15:35:37.154Z,99.90
2022-10-23T15:38:29.312Z,99.90
2022-10-23T15:41:31.101Z,99.90
2022-10-23T15:44:25.954Z,99.90
2022-10-23T15:47:18.105Z,99.90
2022-10-23T15:50:10.317Z,99.90
2022-10-23T15:53:02.588Z,99.90
2022-10-23T15:55:55.918Z,99.90
2022-10-23T15:58:48.080Z,99.90
2022-10-23T16:01:40.367Z,99.90
2022-10-23T16:04:33.272Z,99.90
2022-10-23T16:07:25.463Z,99.90
2022-10-23T16:10:18.793Z,99.90
2022-10-23T16:13:10.931Z,99.90
2022-10-23T16:16:03.890Z,99.90
2022-10-23T16:18:58.141Z,99.90
2022-10-23T16:21:50.329Z,99.90
2022-10-23T16:24:42.514Z,99.90
2022-10-23T16:27:34.648Z,99.90
2022-10-23T16:30:26.788Z,99.90
2022-10-23T16:33:18.926Z,99.90
2022-10-23T16:36:12.517Z,99.90
2022-10-23T16:39:05.810Z,99.90
2022-10-23T16:41:57.945Z,99.90
2022-10-23T16:44:50.073Z,99.90
2022-10-23T16:47:42.201Z,99.90
2022-10-23T16:50:34.395Z,99.90
2022-10-23T16:53:29.065Z,99.90
2022-10-23T16:56:24.831Z,99.90
2022-10-23T16:59:16.964Z,99.90
2022-10-23T17:02:11.259Z,99.90
2022-10-23T17:05:03.611Z,99.90
2022-10-23T17:07:55.743Z,99.90
2022-10-23T17:10:47.994Z,99.90
2022-10-23T17:13:43.645Z,99.90
2022-10-23T17:16:42.986Z,99.90
2022-10-23T17:19:45.437Z,99.90
2022-10-23T17:22:39.007Z,99.90
2022-10-23T17:25:31.327Z,99.90
2022-10-23T17:28:24.258Z,99.90
2022-10-23T17:31:22.385Z,99.90
2022-10-23T17:34:17.314Z,99.90
2022-10-23T17:37:10.216Z,99.90
2022-10-23T17:40:02.637Z,99.90
2022-10-23T17:42:54.865Z,99.90
2022-10-23T17:45:47.013Z,99.90
2022-10-23T17:48:41.853Z,99.90
2022-10-23T17:51:35.906Z,99.90
2022-10-23T17:54:28.414Z,99.90
2022-10-23T17:57:20.625Z,99.90
2022-10-23T18:00:13.023Z,99.90
2022-10-23T18:03:05.139Z,99.90
2022-10-23T18:05:57.326Z,99.90
2022-10-23T18:08:49.879Z,99.90
2022-10-23T18:11:45.518Z,99.90
2022-10-23T18:14:40.129Z,99.90
2022-10-23T18:17:32.734Z,99.90
2022-10-23T18:20:24.864Z,99.90
2022-10-23T18:23:16.996Z,99.90
2022-10-23T18:26:16.679Z,99.90
2022-10-23T18:29:11.581Z,99.90
2022-10-23T18:32:04.258Z,99.90
2022-10-23T18:34:56.450Z,99.90
2022-10-23T18:37:48.731Z,99.90
2022-10-23T18:40:43.141Z,99.90
2022-10-23T18:43:44.135Z,99.90
2022-10-23T18:46:37.503Z,99.90
2022-10-23T18:49:29.794Z,99.90
2022-10-23T18:52:21.981Z,99.90
2022-10-23T18:55:14.448Z,99.90
2022-10-23T18:58:06.560Z,99.90
2022-10-23T19:00:58.898Z,99.90
2022-10-23T19:03:51.227Z,99.90
2022-10-23T19:06:44.819Z,99.90
2022-10-23T19:09:36.990Z,99.90
2022-10-23T19:12:29.156Z,99.90
2022-10-23T19:15:21.329Z,99.90
2022-10-23T19:18:13.646Z,99.90
2022-10-23T19:21:06.731Z,99.90
2022-10-23T19:24:03.277Z,99.90
2022-10-23T19:26:57.352Z,99.90
2022-10-23T19:29:51.767Z,99.90
2022-10-23T19:32:45.481Z,99.90
2022-10-23T19:35:37.852Z,99.90
2022-10-23T19:38:29.995Z,99.90
2022-10-23T19:41:22.133Z,99.90
2022-10-23T19:44:14.951Z,99.90
2022-10-23T19:47:09.522Z,99.90
2022-10-23T19:50:01.857Z,99.90
2022-10-23T19:52:53.996Z,99.90
2022-10-23T19:55:46.341Z,99.90
2022-10-23T19:58:39.152Z,99.90
2022-10-23T20:01:31.392Z,99.90
2022-10-23T20:04:23.609Z,99.90
2022-10-23T20:07:15.747Z,99.90
2022-10-23T20:10:08.797Z,99.90
2022-10-23T20:13:18.202Z,99.90
2022-10-23T20:16:19.096Z,99.90
2022-10-23T20:19:14.768Z,99.90
2022-10-23T20:22:06.990Z,99.90
2022-10-23T20:25:02.179Z,99.90
2022-10-23T20:27:54.366Z,99.90
2022-10-23T20:30:46.624Z,99.90
2022-10-23T20:33:40.934Z,99.90
2022-10-23T20:36:36.198Z,99.90
2022-10-23T20:39:29.801Z,99.90
2022-10-23T20:42:22.041Z,99.90
2022-10-23T20:45:14.200Z,99.90
2022-10-23T20:48:06.603Z,99.90
2022-10-23T20:51:03.390Z,99.90
2022-10-23T20:53:55.823Z,99.90
2022-10-23T20:56:48.200Z,99.90
2022-10-23T20:59:40.308Z,99.90
2022-10-23T21:02:33.220Z,99.90
2022-10-23T21:05:25.390Z,99.90
2022-10-23T21:08:17.480Z,99.90
2022-10-23T21:11:14.674Z,99.90
2022-10-23T21:14:06.882Z,99.90
2022-10-23T21:16:59.088Z,99.90
2022-10-23T21:19:51.277Z,99.90
2022-10-23T21:22:44.316Z,99.90
2022-10-23T21:25:41.007Z,99.90
2022-10-23T21:28:33.686Z,99.90
2022-10-23T21:31:25.879Z,99.90
2022-10-23T21:34:17.962Z,99.90
2022-10-23T21:37:14.526Z,99.90
2022-10-23T21:40:07.669Z,99.90
2022-10-23T21:42:59.776Z,99.90
2022-10-23T21:45:54.333Z,99.90
2022-10-23T21:48:48.312Z,99.90
2022-10-23T21:51:40.753Z,99.90
2022-10-23T21:54:33.030Z,99.90
2022-10-23T21:57:25.165Z,99.90
2022-10-23T22:00:17.570Z,99.90
2022-10-23T22:03:09.704Z,99.90
2022-10-23T22:06:01.797Z,99.90
2022-10-23T22:08:55.660Z,99.90
2022-10-23T22:11:52.610Z,99.90
2022-10-23T22:14:44.785Z,99.90
2022-10-23T22:17:36.926Z,99.90
2022-10-23T22:20:29.041Z,99.90
2022-10-23T22:23:21.135Z,99.90
2022-10-23T22:26:34.224Z,99.90
2022-10-23T22:29:29.438Z,99.90
2022-10-23T22:35:18.557Z,99.90
2022-10-23T22:38:10.645Z,99.90
2022-10-23T22:41:04.100Z,99.90
2022-10-23T22:43:57.506Z,99.90
2022-10-23T22:46:49.822Z,99.90
2022-10-23T22:49:42.706Z,99.90
2022-10-23T22:52:34.856Z,99.90
2022-10-23T22:55:26.972Z,99.90
2022-10-23T22:58:19.151Z,99.90
2022-10-23T23:01:18.124Z,99.90
2022-10-23T23:04:26.000Z,99.90
2022-10-23T23:07:24.776Z,99.90
2022-10-23T23:10:16.924Z,99.90
2022-10-23T23:13:09.105Z,99.90
2022-10-23T23:16:02.426Z,99.90
2022-10-23T23:18:56.014Z,99.90
2022-10-23T23:21:48.189Z,99.90
2022-10-23T23:24:40.276Z,99.90
2022-10-23T23:27:32.394Z,99.90
2022-10-23T23:30:25.403Z,99.90
2022-10-23T23:33:19.455Z,99.90
2022-10-23T23:36:13.754Z,99.90
2022-10-23T23:39:05.876Z,99.90
2022-10-23T23:41:57.991Z,99.90
2022-10-23T23:45:02.297Z,99.90
2022-10-23T23:48:02.378Z,99.90
2022-10-23T23:50:54.596Z,99.90
2022-10-23T23:53:47.742Z,99.90
2022-10-23T23:56:39.923Z,99.90
2022-10-23T23:59:41.971Z,99.90
